Time;durP1;ratioP1;P1;durP2;ratioP2;P2;SDS_P1;SDS_P2;PMS_P1;PMS_P2;Temp;Humidity;BMP_temperature;BMP_pressure;BME280_temperature;BME280_humidity;BME280_pressure;Samples;Min_cycle;Max_cycle;Signal;HPM_P1;HPM_P2
2024/01/07 00:02:06;;;;;;;;;;;;;;;25.26;35.97;93364.97;4921552;29;7896;-37
2024/01/07 00:04:37;;;;;;;;;;;;;;;25.27;36.23;93365.72;4917152;29;7216;-37
2024/01/07 00:07:17;;;;;;;;;;;;;;;25.23;36.37;93365.28;4929516;29;8909;-37
2024/01/07 00:09:43;;;;;;;;;;;;;;;25.25;37.18;93368.28;4930521;29;8759;-37
2024/01/07 00:12:25;;;;;;;;;;;;;;;25.26;36.54;93364.97;4932831;28;7408;-37
2024/01/07 00:14:51;;;;;;;;;;;;;;;25.27;36.84;93365.72;4931742;29;8954;-37
2024/01/07 00:17:37;;;;;;;;;;;;;;;25.24;36.61;93367.53;4932552;29;7267;-37
2024/01/07 00:20:22;;;;;;;;;;;;;;;25.23;36.63;93368.03;4933987;29;8201;-37
2024/01/07 00:23:05;;;;;;;;;;;;;;;25.23;37.30;93362.53;4988601;28;8267;-37
2024/01/07 00:25:41;;;;;;;;;;;;;;;25.19;36.63;93359.38;5032309;28;7139;-37
2024/01/07 00:28:09;;;;;;;;;;;;;;;25.24;36.46;93366.78;5011414;28;9585;-37
2024/01/07 00:30:39;;;;;;;;;;;;;;;25.22;37.14;93366.56;5027333;28;6994;-36
2024/01/07 00:33:11;;;;;;;;;;;;;;;25.19;37.20;93357.38;5015184;28;8284;-36
2024/01/07 00:35:47;;;;;;;;;;;;;;;25.20;37.02;93364.38;5014108;28;9427;-36
2024/01/07 00:38:16;;;;;;;;;;;;;;;25.19;37.37;93364.88;5016533;28;9182;-37
2024/01/07 00:40:44;;;;;;;;;;;;;;;25.18;37.50;93355.91;5010502;28;6989;-36
2024/01/07 00:43:13;;;;;;;;;;;;;;;25.18;37.52;93358.66;5029653;28;9115;-36
2024/01/07 00:45:39;;;;;;;;;;;;;;;25.22;36.91;93361.81;5013199;28;9117;-36
2024/01/07 00:48:08;;;;;;;;;;;;;;;25.19;37.51;93353.88;5015396;28;7111;-36
2024/01/07 00:50:33;;;;;;;;;;;;;;;25.21;37.91;93357.56;5031863;28;9083;-36
2024/01/07 00:53:08;;;;;;;;;;;;;;;25.20;37.80;93358.88;5016060;28;7397;-36
2024/01/07 00:55:37;;;;;;;;;;;;;;;25.18;37.53;93358.66;5014254;28;9280;-36
2024/01/07 00:58:14;;;;;;;;;;;;;;;25.19;37.25;93362.88;5029671;28;8758;-36
2024/01/07 01:00:55;;;;;;;;;;;;;;;25.19;37.97;93364.88;5019908;28;9050;-36
2024/01/07 01:03:36;;;;;;;;;;;;;;;25.17;36.94;93359.16;5015509;28;9211;-36
2024/01/07 01:06:12;;;;;;;;;;;;;;;25.17;37.14;93362.66;5017906;28;9376;-36
2024/01/07 01:08:54;;;;;;;;;;;;;;;25.21;37.31;93363.06;5016389;28;9774;-36
2024/01/07 01:11:22;;;;;;;;;;;;;;;25.19;37.12;93353.88;5031579;28;9400;-36
2024/01/07 01:14:03;;;;;;;;;;;;;;;25.19;37.42;93364.88;5016093;28;7387;-36
2024/01/07 01:16:47;;;;;;;;;;;;;;;25.22;37.15;93363.81;5016066;28;7424;-36
2024/01/07 01:19:28;;;;;;;;;;;;;;;25.24;37.75;93364.78;5019963;28;7245;-36
2024/01/07 01:21:54;;;;;;;;;;;;;;;25.23;38.07;93368.03;5036669;28;8780;-36
2024/01/07 01:24:26;;;;;;;;;;;;;;;25.24;37.64;93372.28;5031134;28;7224;-36
2024/01/07 01:26:59;;;;;;;;;;;;;;;25.26;38.26;93376.00;5019662;28;7562;-36
2024/01/07 01:29:52;;;;;;;;;;;;;;;25.29;38.19;93376.94;5036728;28;7199;-36
2024/01/07 01:32:35;;;;;;;;;;;;;;;25.22;37.88;93375.59;5022177;28;9140;-36
2024/01/07 01:35:10;;;;;;;;;;;;;;;25.26;37.48;93372.50;5023907;28;7213;-36
2024/01/07 01:38:08;;;;;;;;;;;;;;;25.27;37.44;93382.97;5014379;28;9191;-36
2024/01/07 01:41:00;;;;;;;;;;;;;;;25.25;37.37;93373.78;4940938;28;8802;-36
2024/01/07 01:43:56;;;;;;;;;;;;;;;25.28;37.87;93367.94;4960652;28;7090;-36
2024/01/07 01:46:31;;;;;;;;;;;;;;;25.27;37.67;93371.22;4950403;28;7331;-36
2024/01/07 01:49:01;;;;;;;;;;;;;;;25.24;38.20;93372.28;4945069;28;7282;-36
2024/01/07 01:51:36;;;;;;;;;;;;;;;25.24;37.51;93369.53;4939266;28;10086;-36
2024/01/07 01:54:13;;;;;;;;;;;;;;;25.22;38.42;93370.06;4959647;28;7115;-36
2024/01/07 01:56:51;;;;;;;;;;;;;;;25.22;37.82;93366.56;4956789;28;7166;-36
2024/01/07 01:59:30;;;;;;;;;;;;;;;25.21;38.32;93374.09;4954721;28;8234;-36
2024/01/07 02:02:16;;;;;;;;;;;;;;;25.21;37.92;93371.34;4939742;28;7748;-36
2024/01/07 02:04:51;;;;;;;;;;;;;;;25.19;37.87;93370.38;4955906;28;7449;-36
2024/01/07 02:07:18;;;;;;;;;;;;;;;25.22;38.46;93372.09;4951618;28;9083;-36
2024/01/07 02:09:55;;;;;;;;;;;;;;;25.19;37.66;93373.13;4936419;28;7055;-36
2024/01/07 02:12:52;;;;;;;;;;;;;;;25.22;37.82;93374.84;4952152;28;6988;-36
2024/01/07 02:15:22;;;;;;;;;;;;;;;25.23;37.83;93382.53;4964925;28;7970;-36
2024/01/07 02:17:49;;;;;;;;;;;;;;;25.21;38.47;93376.09;5018707;28;9404;-36
2024/01/07 02:20:21;;;;;;;;;;;;;;;25.22;38.35;93377.59;5026811;28;7116;-36
2024/01/07 02:23:12;;;;;;;;;;;;;;;25.21;38.40;93385.09;5027362;28;7457;-36
2024/01/07 02:25:49;;;;;;;;;;;;;;;25.20;38.41;93377.38;5016541;28;7318;-36
2024/01/07 02:28:17;;;;;;;;;;;;;;;25.20;38.09;93374.63;5021863;28;7333;-36
2024/01/07 02:30:44;;;;;;;;;;;;;;;25.21;38.54;93373.34;5029388;28;9107;-36
2024/01/07 02:33:16;;;;;;;;;;;;;;;25.21;38.68;93373.34;5014961;28;7045;-36
2024/01/07 02:36:15;;;;;;;;;;;;;;;25.21;37.67;93374.09;5013973;28;7130;-36
2024/01/07 02:39:25;;;;;;;;;;;;;;;25.21;37.71;93370.59;5021147;28;9107;-36
2024/01/07 02:42:01;;;;;;;;;;;;;;;25.20;37.97;93374.63;5029562;28;7876;-36
2024/01/07 02:45:05;;;;;;;;;;;;;;;25.22;38.66;93372.09;5035603;28;9075;-36
2024/01/07 02:47:39;;;;;;;;;;;;;;;25.21;38.15;93368.59;5026777;28;7430;-36
2024/01/07 02:50:16;;;;;;;;;;;;;;;25.19;38.16;93370.38;5029819;28;7002;-41
2024/01/07 02:52:53;;;;;;;;;;;;;;;25.17;38.33;93367.44;5035530;28;7888;-39
2024/01/07 02:55:19;;;;;;;;;;;;;;;25.19;38.71;93370.38;5035038;28;9627;-39
2024/01/07 02:57:49;;;;;;;;;;;;;;;25.19;38.29;93373.13;5017621;28;9110;-40
2024/01/07 03:00:19;;;;;;;;;;;;;;;25.18;38.05;93375.16;5031539;28;9377;-42
2024/01/07 03:02:48;;;;;;;;;;;;;;;25.17;38.53;93373.69;5029069;28;9290;-40
2024/01/07 03:05:14;;;;;;;;;;;;;;;25.17;38.01;93368.16;5015242;28;9049;-40
2024/01/07 03:07:47;;;;;;;;;;;;;;;25.18;38.20;93371.66;5014255;28;9401;-39
2024/01/07 03:10:14;;;;;;;;;;;;;;;25.16;38.07;93377.72;5013752;28;7281;-41
2024/01/07 03:12:42;;;;;;;;;;;;;;;25.18;38.61;93377.16;5035810;28;7230;-41
2024/01/07 03:15:11;;;;;;;;;;;;;;;25.17;37.78;93376.44;5031252;28;7157;-40
2024/01/07 03:17:39;;;;;;;;;;;;;;;25.18;37.81;93375.16;5011081;28;8827;-41
2024/01/07 03:20:06;;;;;;;;;;;;;;;25.16;38.54;93377.72;5013651;28;7176;-40
2024/01/07 03:22:34;;;;;;;;;;;;;;;25.17;38.51;93376.44;5037386;28;9100;-40
2024/01/07 03:25:03;;;;;;;;;;;;;;;25.19;38.47;93378.63;5015901;28;9518;-40
2024/01/07 03:27:39;;;;;;;;;;;;;;;25.19;38.63;93379.38;5015105;28;7295;-40
2024/01/07 03:30:09;;;;;;;;;;;;;;;25.19;37.57;93382.13;5035183;28;8755;-40
2024/01/07 03:32:50;;;;;;;;;;;;;;;25.18;38.37;93379.94;5016842;28;7468;-40
2024/01/07 03:35:37;;;;;;;;;;;;;;;25.17;37.92;93375.69;5017631;28;9172;-40
2024/01/07 03:38:13;;;;;;;;;;;;;;;25.19;37.82;93379.38;5027083;28;7195;-40
2024/01/07 03:40:58;;;;;;;;;;;;;;;25.19;37.81;93382.13;5017082;28;7363;-39
2024/01/07 03:43:34;;;;;;;;;;;;;;;25.19;38.69;93381.38;5028317;28;8808;-40
2024/01/07 03:46:11;;;;;;;;;;;;;;;25.17;38.01;93383.94;5021146;28;7900;-40
2024/01/07 03:48:56;;;;;;;;;;;;;;;25.19;38.15;93384.13;5034277;28;9046;-40
2024/01/07 03:51:24;;;;;;;;;;;;;;;25.20;37.86;93386.38;5015944;28;8310;-40
2024/01/07 03:53:51;;;;;;;;;;;;;;;25.19;38.75;93382.13;5031273;28;7183;-39
2024/01/07 03:56:43;;;;;;;;;;;;;;;25.20;38.20;93380.88;5012946;28;7710;-39
2024/01/07 03:59:11;;;;;;;;;;;;;;;25.19;38.53;93386.91;4949694;28;9800;-37
2024/01/07 04:01:58;;;;;;;;;;;;;;;25.15;38.49;93380.97;4947917;28;7230;-37
2024/01/07 04:04:50;;;;;;;;;;;;;;;25.21;38.21;93390.59;4929164;28;7001;-37
2024/01/07 04:07:29;;;;;;;;;;;;;;;25.18;38.57;93385.44;4949962;28;7073;-37
2024/01/07 04:09:58;;;;;;;;;;;;;;;25.19;38.06;93386.91;4940722;28;7639;-37
2024/01/07 04:12:55;;;;;;;;;;;;;;;25.19;38.79;93392.41;4943327;28;8095;-37
2024/01/07 04:15:36;;;;;;;;;;;;;;;25.19;37.79;93389.66;4865255;29;7918;-37
2024/01/07 04:18:03;;;;;;;;;;;;;;;25.19;38.40;93386.91;4856954;29;9450;-37
2024/01/07 04:20:39;;;;;;;;;;;;;;;25.19;38.92;93392.41;4874131;29;7449;-37
2024/01/07 04:23:52;;;;;;;;;;;;;;;25.18;38.47;93397.19;4876328;29;8744;-37
2024/01/07 04:26:32;;;;;;;;;;;;;;;25.16;37.98;93394.22;4878571;29;6991;-37
2024/01/07 04:29:02;;;;;;;;;;;;;;;25.17;38.04;93395.69;4858808;29;7003;-37
2024/01/07 04:31:28;;;;;;;;;;;;;;;25.17;37.85;93395.69;4873739;29;7264;-37
2024/01/07 04:33:58;;;;;;;;;;;;;;;25.17;38.40;93394.94;4876682;29;9114;-37
2024/01/07 04:36:26;;;;;;;;;;;;;;;25.17;38.54;93392.94;4851483;29;9077;-37
2024/01/07 04:39:06;;;;;;;;;;;;;;;25.17;38.15;93395.69;4875691;29;9105;-37
2024/01/07 04:42:30;;;;;;;;;;;;;;;25.17;38.29;93398.44;4877281;29;9647;-37
2024/01/07 04:45:13;;;;;;;;;;;;;;;25.17;38.83;93392.94;4877729;29;9630;-37
2024/01/07 04:47:53;;;;;;;;;;;;;;;25.14;38.27;93399.50;4870731;29;7861;-37
2024/01/07 04:50:44;;;;;;;;;;;;;;;25.17;38.95;93405.94;4862737;29;7054;-37
2024/01/07 04:53:21;;;;;;;;;;;;;;;25.14;38.10;93401.53;4933597;28;7264;-37
2024/01/07 04:56:23;;;;;;;;;;;;;;;25.15;38.52;93408.50;4953503;28;7270;-37
2024/01/07 04:58:48;;;;;;;;;;;;;;;25.13;38.36;93409.03;4869540;29;7091;-37
2024/01/07 05:01:36;;;;;;;;;;;;;;;25.16;38.87;93407.25;4862594;29;9029;-37
2024/01/07 05:04:15;;;;;;;;;;;;;;;25.15;38.26;93414.75;4879065;29;8783;-37
2024/01/07 05:06:52;;;;;;;;;;;;;;;25.15;38.32;93405.75;4901725;29;7174;-37
2024/01/07 05:09:57;;;;;;;;;;;;;;;25.16;38.17;93413.50;4891148;29;7156;-58
2024/01/07 05:12:54;;;;;;;;;;;;;;;25.17;39.09;93412.19;4890162;29;7522;-57
2024/01/07 05:15:23;;;;;;;;;;;;;;;25.18;39.28;93410.19;4899291;29;6987;-58
2024/01/07 05:17:51;;;;;;;;;;;;;;;25.17;39.06;93417.69;4892946;29;7077;-57
2024/01/07 05:20:21;;;;;;;;;;;;;;;25.19;38.80;93417.16;4889703;29;7262;-57
2024/01/07 05:23:23;;;;;;;;;;;;;;;25.17;38.50;93417.69;4894656;29;7066;-57
2024/01/07 05:26:00;;;;;;;;;;;;;;;25.17;38.37;93416.97;4870206;29;9461;-57
2024/01/07 05:28:26;;;;;;;;;;;;;;;25.15;39.27;93411.25;4877305;29;8838;-57
2024/01/07 05:31:01;;;;;;;;;;;;;;;25.16;38.45;93418.25;4876112;29;7374;-57
2024/01/07 05:33:29;;;;;;;;;;;;;;;25.13;38.96;93414.53;4927550;28;9086;-57
2024/01/07 05:36:33;;;;;;;;;;;;;;;25.15;37.98;93417.50;4964434;28;7056;-57
2024/01/07 05:39:00;;;;;;;;;;;;;;;25.14;38.64;93418.75;4957101;28;9116;-57
2024/01/07 05:41:36;;;;;;;;;;;;;;;25.15;38.33;93420.25;4957232;28;9008;-57
2024/01/07 05:44:47;;;;;;;;;;;;;;;25.15;39.04;93422.25;4969380;28;9096;-57
2024/01/07 05:47:30;;;;;;;;;;;;;;;25.14;38.50;93427.00;4931127;29;9022;-57
2024/01/07 05:49:57;;;;;;;;;;;;;;;25.14;39.12;93427.00;4908445;29;6998;-58
2024/01/07 05:52:24;;;;;;;;;;;;;;;25.17;38.51;93433.47;4926153;29;7125;-58
2024/01/07 05:54:50;;;;;;;;;;;;;;;25.16;38.61;93429.25;4934988;29;9055;-58
2024/01/07 05:57:16;;;;;;;;;;;;;;;25.19;38.78;93436.44;4909878;29;9079;-58
2024/01/07 05:59:45;;;;;;;;;;;;;;;25.22;39.18;93436.13;4931834;28;9375;-58
2024/01/07 06:02:22;;;;;;;;;;;;;;;25.19;38.12;93430.94;4926924;29;8974;-58
2024/01/07 06:05:09;;;;;;;;;;;;;;;25.22;38.25;93433.38;4945368;28;7048;-58
2024/01/07 06:07:48;;;;;;;;;;;;;;;25.18;38.20;93434.97;4929009;28;7076;-58
2024/01/07 06:10:28;;;;;;;;;;;;;;;25.22;38.52;93441.63;4935307;28;9038;-58
2024/01/07 06:12:54;;;;;;;;;;;;;;;25.21;38.54;93442.13;4942364;28;9285;-58
2024/01/07 06:15:33;;;;;;;;;;;;;;;25.19;38.15;93441.94;4935976;28;8218;-58
2024/01/07 06:18:12;;;;;;;;;;;;;;;25.17;39.02;93434.22;4938174;28;7289;-38
2024/01/07 06:20:40;;;;;;;;;;;;;;;25.19;39.20;93441.94;4942412;28;9195;-36
2024/01/07 06:23:36;;;;;;;;;;;;;;;25.19;38.24;93453.69;4951890;28;9123;-36
2024/01/07 06:26:11;;;;;;;;;;;;;;;25.18;38.95;93445.97;4932088;28;7235;-36
2024/01/07 06:28:57;;;;;;;;;;;;;;;25.22;38.30;93452.63;4919970;29;6860;-52
2024/01/07 06:31:24;;;;;;;;;;;;;;;25.21;38.35;93455.91;4927287;29;6978;-50
2024/01/07 06:34:13;;;;;;;;;;;;;;;25.23;39.27;93456.84;4935047;28;7326;-53
2024/01/07 06:37:07;;;;;;;;;;;;;;;25.24;39.10;93457.59;4928156;29;9073;-52
2024/01/07 06:39:49;;;;;;;;;;;;;;;25.21;38.62;93464.16;4920236;29;9005;-40
2024/01/07 06:42:36;;;;;;;;;;;;;;;25.24;38.18;93471.34;4917229;29;9847;-40
2024/01/07 06:45:05;;;;;;;;;;;;;;;25.24;38.36;93461.09;4934706;28;9354;-40
2024/01/07 06:47:46;;;;;;;;;;;;;;;25.23;38.21;93467.13;4917057;29;7321;-40
2024/01/07 06:50:59;;;;;;;;;;;;;;;25.22;38.22;93479.41;4934783;29;9058;-41
2024/01/07 06:53:35;;;;;;;;;;;;;;;25.15;39.08;93458.78;4918628;29;9430;-42
2024/01/07 06:56:10;;;;;;;;;;;;;;;25.23;39.11;93469.88;4919668;29;9168;-41
2024/01/07 06:58:36;;;;;;;;;;;;;;;25.26;38.06;93474.31;4933612;29;9046;-41
2024/01/07 07:01:02;;;;;;;;;;;;;;;25.24;38.04;93477.63;4918001;29;9151;-40
2024/01/07 07:03:28;;;;;;;;;;;;;;;25.21;38.07;93475.16;5024950;28;9119;-39
2024/01/07 07:05:54;;;;;;;;;;;;;;;25.22;38.33;93485.66;5026418;28;7241;-41
2024/01/07 07:08:27;;;;;;;;;;;;;;;25.31;38.20;93476.22;5032567;28;7291;-39
2024/01/07 07:10:53;;;;;;;;;;;;;;;25.35;38.56;93477.41;5020835;28;7266;-40
2024/01/07 07:13:25;;;;;;;;;;;;;;;25.41;38.44;93483.53;5025828;28;9026;-40
2024/01/07 07:15:55;;;;;;;;;;;;;;;25.43;38.18;93485.75;5022455;28;8880;-40
2024/01/07 07:18:22;;;;;;;;;;;;;;;25.46;38.41;93490.22;5016127;28;7117;-40
2024/01/07 07:21:08;;;;;;;;;;;;;;;25.48;37.71;93493.19;5034265;28;9310;-39
2024/01/07 07:23:35;;;;;;;;;;;;;;;25.50;38.52;93484.38;5024660;28;8640;-39
2024/01/07 07:26:01;;;;;;;;;;;;;;;25.54;37.49;93484.78;5015870;28;7294;-39
2024/01/07 07:28:28;;;;;;;;;;;;;;;25.55;38.39;93489.03;5020524;28;9261;-40
2024/01/07 07:30:57;;;;;;;;;;;;;;;25.57;38.23;93484.50;5031667;28;7272;-40
2024/01/07 07:33:30;;;;;;;;;;;;;;;25.60;38.60;93483.41;5016318;28;7058;-40
2024/01/07 07:35:58;;;;;;;;;;;;;;;25.62;38.64;93493.91;5034380;28;8551;-40
2024/01/07 07:38:37;;;;;;;;;;;;;;;25.62;37.83;93497.38;5017868;28;9324;-39
2024/01/07 07:41:12;;;;;;;;;;;;;;;25.63;37.90;93501.63;5015340;28;7001;-39
2024/01/07 07:43:39;;;;;;;;;;;;;;;25.63;37.47;93498.88;5014449;28;7219;-40
2024/01/07 07:46:13;;;;;;;;;;;;;;;25.61;38.13;93504.19;5011479;28;7261;-40
2024/01/07 07:48:47;;;;;;;;;;;;;;;25.61;38.44;93493.16;5016664;28;8965;-37
2024/01/07 07:51:32;;;;;;;;;;;;;;;25.58;37.78;93510.75;5027527;28;7320;-37
2024/01/07 07:54:03;;;;;;;;;;;;;;;25.58;38.13;93499.72;5022464;28;9098;-37
2024/01/07 07:56:31;;;;;;;;;;;;;;;25.56;38.46;93496.00;5014897;28;7437;-37
2024/01/07 07:58:57;;;;;;;;;;;;;;;25.54;38.31;93502.06;5016072;28;7664;-37
2024/01/07 08:01:48;;;;;;;;;;;;;;;25.53;37.96;93503.34;5022531;28;7136;-37
2024/01/07 08:04:17;;;;;;;;;;;;;;;25.53;38.12;93508.84;5015337;28;7347;-37
2024/01/07 08:06:52;;;;;;;;;;;;;;;25.48;38.40;93512.44;5033249;28;9048;-37
2024/01/07 08:09:18;;;;;;;;;;;;;;;25.43;38.35;93519.53;5021158;28;7241;-37
2024/01/07 08:11:57;;;;;;;;;;;;;;;25.40;38.12;93522.59;5018276;28;7196;-36
2024/01/07 08:14:35;;;;;;;;;;;;;;;25.36;38.50;93522.91;5029407;28;9027;-37
2024/01/07 08:17:18;;;;;;;;;;;;;;;25.35;38.29;93515.94;5020430;28;7478;-37
2024/01/07 08:20:15;;;;;;;;;;;;;;;25.35;38.93;93523.44;5026441;28;7237;-37
2024/01/07 08:22:55;;;;;;;;;;;;;;;25.31;38.77;93517.53;4958836;28;8763;-37
2024/01/07 08:25:23;;;;;;;;;;;;;;;25.34;38.28;93527.44;4952545;28;8233;-37
2024/01/07 08:28:12;;;;;;;;;;;;;;;25.37;38.53;93538.16;4948596;28;7497;-38
2024/01/07 08:30:39;;;;;;;;;;;;;;;25.38;39.07;93527.91;4933834;29;7495;-38
2024/01/07 08:33:05;;;;;;;;;;;;;;;25.35;39.11;93537.22;4949587;28;9171;-38
2024/01/07 08:35:32;;;;;;;;;;;;;;;25.34;38.83;93536.47;4947061;28;7248;-37
2024/01/07 08:38:04;;;;;;;;;;;;;;;25.34;39.17;93541.22;4959289;28;7262;-37
2024/01/07 08:40:43;;;;;;;;;;;;;;;25.31;39.05;93531.28;4944451;28;7140;-37
2024/01/07 08:43:19;;;;;;;;;;;;;;;25.31;38.85;93543.03;4960994;28;9446;-38
2024/01/07 08:45:54;;;;;;;;;;;;;;;25.29;39.47;93542.09;4961912;28;7264;-38
2024/01/07 08:48:21;;;;;;;;;;;;;;;25.30;40.06;93544.28;4953202;28;8301;-37
2024/01/07 08:50:47;;;;;;;;;;;;;;;25.30;39.24;93544.28;4933355;28;7357;-38
2024/01/07 08:53:14;;;;;;;;;;;;;;;25.29;40.15;93539.31;4946646;28;9098;-38
2024/01/07 08:55:40;;;;;;;;;;;;;;;25.30;40.07;93543.53;4948960;28;9169;-38
2024/01/07 08:58:06;;;;;;;;;;;;;;;25.30;40.41;93546.31;4951083;28;9057;-40
2024/01/07 09:00:33;;;;;;;;;;;;;;;25.30;40.20;93552.56;5024729;28;7252;-40
2024/01/07 09:03:02;;;;;;;;;;;;;;;25.28;41.13;93548.84;5022403;28;9047;-40
2024/01/07 09:05:30;;;;;;;;;;;;;;;25.27;41.06;93553.59;5014214;28;9333;-39
2024/01/07 09:07:59;;;;;;;;;;;;;;;25.27;40.55;93559.09;5007284;28;7205;-40
2024/01/07 09:10:26;;;;;;;;;;;;;;;25.30;40.08;93551.81;5008523;28;9429;-40
2024/01/07 09:12:53;;;;;;;;;;;;;;;25.38;40.35;93561.66;5011005;28;7076;-41
2024/01/07 09:15:20;;;;;;;;;;;;;;;25.41;39.63;93568.13;5011267;28;9118;-42
2024/01/07 09:17:47;;;;;;;;;;;;;;;25.42;39.19;93570.34;5016141;28;8764;-40
2024/01/07 09:20:13;;;;;;;;;;;;;;;25.42;38.06;93564.13;5008861;28;7286;-40
2024/01/07 09:22:40;;;;;;;;;;;;;;;25.43;37.95;93571.09;5014561;28;8759;-40
2024/01/07 09:25:09;;;;;;;;;;;;;;;25.43;37.52;93569.09;5005629;28;7203;-41
2024/01/07 09:27:38;;;;;;;;;;;;;;;25.50;37.13;93573.22;5025551;28;7685;-40
2024/01/07 09:30:04;;;;;;;;;;;;;;;25.56;37.27;93573.88;5026434;28;9107;-41
2024/01/07 09:32:30;;;;;;;;;;;;;;;25.64;38.01;93569.22;5024509;28;6946;-40
2024/01/07 09:34:58;;;;;;;;;;;;;;;25.78;37.85;93573.44;5025878;28;7232;-41
2024/01/07 09:37:24;;;;;;;;;;;;;;;25.81;37.36;93583.41;5024911;28;7267;-40
2024/01/07 09:39:51;;;;;;;;;;;;;;;25.73;37.46;93568.03;5032876;28;7220;-39
2024/01/07 09:42:19;;;;;;;;;;;;;;;25.78;36.67;93584.44;5033728;28;7034;-40
2024/01/07 09:44:46;;;;;;;;;;;;;;;25.79;37.03;93574.91;5016282;28;9129;-40
2024/01/07 09:47:18;;;;;;;;;;;;;;;25.78;37.26;93581.69;5035198;28;9148;-41
2024/01/07 09:49:53;;;;;;;;;;;;;;;25.75;37.99;93585.50;5032141;28;7248;-41
2024/01/07 09:52:24;;;;;;;;;;;;;;;25.72;37.93;93586.56;5013077;28;9165;-39
2024/01/07 09:54:54;;;;;;;;;;;;;;;25.66;38.31;93577.69;5027787;28;7026;-40
2024/01/07 09:57:20;;;;;;;;;;;;;;;25.62;37.68;93584.78;5027879;28;6989;-40
2024/01/07 09:59:48;;;;;;;;;;;;;;;25.60;38.55;93584.56;5011380;28;7159;-40
2024/01/07 10:02:15;;;;;;;;;;;;;;;25.55;37.95;93585.41;5018002;28;9110;-40
2024/01/07 10:04:50;;;;;;;;;;;;;;;25.48;38.92;93584.03;5016892;28;7488;-41
2024/01/07 10:07:17;;;;;;;;;;;;;;;25.43;38.93;93588.38;5029241;28;9668;-39
2024/01/07 10:09:46;;;;;;;;;;;;;;;25.45;38.81;93584.38;5021080;28;7051;-47
2024/01/07 10:12:15;;;;;;;;;;;;;;;25.41;38.57;93596.38;5017228;28;7581;-46
2024/01/07 10:14:40;;;;;;;;;;;;;;;25.41;38.33;93584.63;5015521;28;7076;-49
2024/01/07 10:17:27;;;;;;;;;;;;;;;25.40;39.25;93585.91;5020315;28;9316;-48
2024/01/07 10:19:56;;;;;;;;;;;;;;;25.41;38.34;93579.88;5014733;28;7914;-48
2024/01/07 10:22:30;;;;;;;;;;;;;;;25.39;39.28;93579.66;5019551;28;7229;-48
2024/01/07 10:25:06;;;;;;;;;;;;;;;25.42;38.88;93577.91;5013786;28;8521;-49
2024/01/07 10:27:37;;;;;;;;;;;;;;;25.41;38.94;93579.88;5033188;28;9471;-49
2024/01/07 10:30:08;;;;;;;;;;;;;;;25.41;39.08;93579.13;5014799;28;9129;-50
2024/01/07 10:32:37;;;;;;;;;;;;;;;25.41;38.94;93573.63;5009421;28;9093;-49
2024/01/07 10:35:07;;;;;;;;;;;;;;;25.41;38.41;93574.38;5014206;28;9426;-48
2024/01/07 10:37:34;;;;;;;;;;;;;;;25.49;38.64;93584.78;5016321;28;7254;-48
2024/01/07 10:40:04;;;;;;;;;;;;;;;25.51;39.55;93574.72;5026763;28;9072;-48
2024/01/07 10:42:34;;;;;;;;;;;;;;;25.58;38.87;93579.56;5035455;28;9100;-46
2024/01/07 10:45:01;;;;;;;;;;;;;;;25.55;38.98;93572.41;5040244;28;8203;-48
2024/01/07 10:47:30;;;;;;;;;;;;;;;25.56;38.78;93571.09;5030411;28;6997;-47
2024/01/07 10:50:12;;;;;;;;;;;;;;;25.58;39.38;93568.56;5031274;28;7164;-48
2024/01/07 10:52:41;;;;;;;;;;;;;;;25.66;38.57;93572.19;5032769;28;6999;-46
2024/01/07 10:55:17;;;;;;;;;;;;;;;25.64;39.10;93565.72;5018897;28;7508;-50
2024/01/07 10:57:45;;;;;;;;;;;;;;;25.68;39.61;93568.88;5027472;28;7055;-47
2024/01/07 11:00:31;;;;;;;;;;;;;;;25.68;38.55;93571.63;5019730;28;7007;-48
2024/01/07 11:03:24;;;;;;;;;;;;;;;25.69;38.65;93573.84;5017180;28;7637;-49
2024/01/07 11:06:12;;;;;;;;;;;;;;;25.70;39.12;93566.34;5013491;28;9442;-47
2024/01/07 11:08:56;;;;;;;;;;;;;;;25.69;39.26;93571.09;5019443;28;7333;-48
2024/01/07 11:11:37;;;;;;;;;;;;;;;25.73;38.30;93577.03;5033412;28;9649;-46
2024/01/07 11:14:04;;;;;;;;;;;;;;;25.71;38.92;93568.56;5012784;28;7952;-46
2024/01/07 11:16:46;;;;;;;;;;;;;;;25.74;38.39;93564.00;5011213;28;7493;-46
2024/01/07 11:19:20;;;;;;;;;;;;;;;25.75;39.00;93568.97;5008297;28;9611;-47
2024/01/07 11:21:48;;;;;;;;;;;;;;;25.75;38.68;93557.22;5026106;28;8459;-46
2024/01/07 11:24:42;;;;;;;;;;;;;;;25.75;38.77;93557.94;5015007;28;9189;-47
2024/01/07 11:27:09;;;;;;;;;;;;;;;25.73;38.22;93549.47;5032303;28;8774;-47
2024/01/07 11:29:37;;;;;;;;;;;;;;;25.70;38.16;93561.59;5021237;28;7057;-47
2024/01/07 11:32:05;;;;;;;;;;;;;;;25.74;38.17;93552.97;5017366;28;8847;-50
2024/01/07 11:34:47;;;;;;;;;;;;;;;25.72;38.47;93552.78;5030638;28;7243;-52
2024/01/07 11:37:15;;;;;;;;;;;;;;;25.69;38.38;93560.09;5014903;28;7234;-52
2024/01/07 11:39:46;;;;;;;;;;;;;;;25.67;38.97;93559.88;5027912;28;7143;-48
2024/01/07 11:42:48;;;;;;;;;;;;;;;25.66;38.45;93552.16;5017221;28;7335;-53
2024/01/07 11:45:24;;;;;;;;;;;;;;;25.62;39.37;93546.94;4923001;29;9153;-48
2024/01/07 11:48:02;;;;;;;;;;;;;;;25.69;38.56;93545.56;4936775;28;9614;-53
2024/01/07 11:50:37;;;;;;;;;;;;;;;25.66;39.29;93552.91;4927875;28;7135;-49
2024/01/07 11:53:20;;;;;;;;;;;;;;;25.68;38.94;93557.88;4930475;28;7429;-49
2024/01/07 11:55:58;;;;;;;;;;;;;;;25.65;39.55;93554.16;4934807;29;8625;-49
2024/01/07 11:58:35;;;;;;;;;;;;;;;25.64;39.52;93551.94;4937568;28;7241;-51
2024/01/07 12:01:03;;;;;;;;;;;;;;;25.64;39.58;93555.44;4927267;29;8158;-51
2024/01/07 12:03:38;;;;;;;;;;;;;;;25.66;39.37;93555.66;4924494;29;8769;-46
2024/01/07 12:06:15;;;;;;;;;;;;;;;25.66;38.88;93555.66;4925924;29;8713;-50
2024/01/07 12:09:13;;;;;;;;;;;;;;;25.67;39.76;93557.13;4920701;28;8086;-50
2024/01/07 12:11:56;;;;;;;;;;;;;;;25.65;39.40;93553.41;4876490;29;8811;-51
2024/01/07 12:14:22;;;;;;;;;;;;;;;25.69;38.66;93549.06;4880466;29;7250;-48
2024/01/07 12:16:52;;;;;;;;;;;;;;;25.68;39.55;93553.13;4880617;29;8988;-47
2024/01/07 12:19:19;;;;;;;;;;;;;;;25.70;38.70;93560.84;4912451;28;7213;-47
2024/01/07 12:21:48;;;;;;;;;;;;;;;25.68;39.35;93553.13;4954226;28;6997;-50
2024/01/07 12:24:14;;;;;;;;;;;;;;;25.70;39.43;93549.81;4953055;28;9102;-47
2024/01/07 12:27:04;;;;;;;;;;;;;;;25.70;39.50;93556.06;4935095;28;7461;-50
2024/01/07 12:29:39;;;;;;;;;;;;;;;25.66;39.39;93552.16;4948799;28;7249;-36
2024/01/07 12:32:09;;;;;;;;;;;;;;;25.59;39.52;93547.28;4941927;28;9604;-37
2024/01/07 12:34:59;;;;;;;;;;;;;;;25.55;39.23;93547.63;4954759;28;8940;-36
2024/01/07 12:37:36;;;;;;;;;;;;;;;25.51;39.60;93555.44;4952163;28;7458;-36
2024/01/07 12:40:02;;;;;;;;;;;;;;;25.50;39.50;93553.97;4948518;28;8213;-36
2024/01/07 12:42:54;;;;;;;;;;;;;;;25.54;39.64;93557.13;4951596;28;7126;-36
2024/01/07 12:45:49;;;;;;;;;;;;;;;25.60;39.13;93557.03;4960625;28;8903;-36
2024/01/07 12:48:16;;;;;;;;;;;;;;;25.55;39.83;93552.38;4940608;28;7673;-36
2024/01/07 12:50:54;;;;;;;;;;;;;;;25.55;39.84;93566.13;4964276;28;8880;-36
2024/01/07 12:53:19;;;;;;;;;;;;;;;25.57;39.61;93558.84;4967406;28;7268;-36
2024/01/07 12:55:48;;;;;;;;;;;;;;;25.54;39.91;93557.13;4939213;28;9004;-37
2024/01/07 12:58:28;;;;;;;;;;;;;;;25.56;39.76;93560.09;4952669;28;7376;-36
2024/01/07 13:00:57;;;;;;;;;;;;;;;25.55;39.83;93557.88;4971670;28;9156;-36
2024/01/07 13:03:24;;;;;;;;;;;;;;;25.56;39.47;93565.59;4946152;28;7354;-36
2024/01/07 13:05:50;;;;;;;;;;;;;;;25.54;40.14;93554.38;4965189;28;9496;-36
2024/01/07 13:08:22;;;;;;;;;;;;;;;25.54;39.99;93559.88;4935600;29;7240;-36
2024/01/07 13:10:50;;;;;;;;;;;;;;;25.57;40.16;93567.09;4962103;28;7235;-36
2024/01/07 13:13:17;;;;;;;;;;;;;;;25.60;39.89;93570.81;4945572;28;7746;-36
2024/01/07 13:15:52;;;;;;;;;;;;;;;25.63;38.82;93570.47;4956486;28;7267;-37
2024/01/07 13:18:55;;;;;;;;;;;;;;;25.66;39.07;93569.44;4941097;28;10060;-36
2024/01/07 13:21:37;;;;;;;;;;;;;;;25.65;38.89;93570.69;4904843;29;9245;-36
2024/01/07 13:24:16;;;;;;;;;;;;;;;25.67;38.28;93567.38;4885118;29;8229;-36
2024/01/07 13:27:11;;;;;;;;;;;;;;;25.68;38.27;93571.63;4900623;29;7255;-36
2024/01/07 13:30:06;;;;;;;;;;;;;;;25.68;38.75;93572.38;4917117;29;7206;-36
2024/01/07 13:32:56;;;;;;;;;;;;;;;25.67;38.74;93570.88;4826121;29;9106;-36
2024/01/07 13:35:37;;;;;;;;;;;;;;;25.68;38.76;93579.91;4826078;29;7273;-36
2024/01/07 13:38:10;;;;;;;;;;;;;;;25.68;38.76;93579.91;4823265;29;7018;-38
2024/01/07 13:40:38;;;;;;;;;;;;;;;25.68;38.48;93585.41;4820964;29;8801;-41
2024/01/07 13:43:04;;;;;;;;;;;;;;;25.66;38.97;93577.69;4811008;29;7082;-40